createdAt,value
2017-04-26T06:30:58.958Z,5.27
2017-04-26T06:31:57.320Z,5.20
2017-04-26T06:32:55.637Z,4.85
2017-04-26T06:33:53.976Z,5.25
2017-04-26T06:34:52.612Z,5.32
2017-04-26T06:35:50.957Z,4.83
2017-04-26T06:36:49.316Z,4.95
2017-04-26T06:37:47.666Z,5.13
2017-04-26T06:38:46.412Z,6.53
2017-04-26T06:39:44.768Z,5.20
2017-04-26T06:40:43.556Z,5.85
2017-04-26T06:41:41.908Z,5.90
2017-04-26T06:42:40.264Z,6.55
2017-04-26T06:43:38.604Z,5.50
2017-04-26T06:44:36.941Z,6.33
2017-04-26T06:45:35.594Z,5.42
2017-04-26T06:46:33.968Z,6.07
2017-04-26T06:47:32.315Z,5.35
2017-04-26T06:48:30.699Z,5.12
2017-04-26T06:49:29.063Z,5.27
2017-04-26T06:50:27.435Z,4.82
2017-04-26T06:51:25.876Z,4.42
2017-04-26T06:52:24.271Z,5.48
2017-04-26T06:53:23.047Z,5.28
2017-04-26T06:54:21.444Z,4.60
2017-04-26T06:55:19.816Z,4.30
2017-04-26T06:56:18.834Z,5.38
2017-04-26T06:57:17.224Z,4.48
2017-04-26T06:58:15.988Z,5.88
2017-04-26T06:59:14.368Z,4.20
2017-04-26T07:00:12.795Z,4.45
2017-04-26T07:01:11.177Z,4.82
2017-04-26T07:02:09.577Z,4.98
2017-04-26T07:03:08.338Z,4.65
2017-04-26T07:04:07.645Z,4.92
2017-04-26T07:05:06.039Z,4.60
2017-04-26T07:06:04.501Z,4.80
2017-04-26T07:07:03.163Z,5.02
2017-04-26T07:08:01.536Z,5.65
2017-04-26T07:09:00.830Z,5.72
2017-04-26T07:09:59.320Z,4.90
2017-04-26T07:10:57.721Z,4.33
2017-04-26T07:11:56.184Z,3.88
2017-04-26T07:12:54.824Z,4.75
2017-04-26T07:13:53.633Z,4.52
2017-04-26T07:14:52.019Z,3.82
2017-04-26T07:15:50.413Z,4.50
2017-04-26T07:16:48.831Z,4.70
2017-04-26T07:17:47.662Z,4.90
2017-04-26T07:18:46.029Z,4.32
2017-04-26T07:19:44.408Z,4.27
2017-04-26T07:20:42.805Z,5.50
2017-04-26T07:21:41.220Z,4.57
2017-04-26T07:22:39.646Z,5.20
2017-04-26T07:23:38.067Z,5.35
2017-04-26T07:24:36.440Z,4.93
2017-04-26T07:25:34.794Z,4.58
2017-04-26T07:26:33.593Z,3.95
2017-04-26T07:27:31.957Z,5.30
2017-04-26T07:28:30.623Z,5.57
2017-04-26T07:29:28.999Z,5.27
2017-04-26T07:30:27.348Z,5.28
2017-04-26T07:31:25.697Z,5.20
2017-04-26T07:32:24.063Z,4.90
2017-04-26T07:33:22.439Z,4.25
2017-04-26T07:34:20.933Z,4.92
2017-04-26T07:35:19.312Z,4.85
2017-04-26T07:36:17.679Z,4.27
2017-04-26T07:37:16.067Z,4.88
2017-04-26T07:38:14.452Z,4.63
2017-04-26T07:39:13.095Z,4.90
2017-04-26T07:40:11.476Z,4.15
2017-04-26T07:41:09.895Z,4.53
2017-04-26T07:42:08.285Z,4.88
2017-04-26T07:43:06.773Z,4.97
2017-04-26T07:44:05.131Z,5.22
2017-04-26T07:45:04.212Z,4.72
2017-04-26T07:46:02.603Z,4.78
2017-04-26T07:47:01.352Z,4.30
2017-04-26T07:48:00.350Z,4.08
2017-04-26T07:48:58.678Z,3.98
2017-04-26T07:49:57.046Z,4.90
2017-04-26T07:50:55.441Z,4.50
2017-04-26T07:51:53.817Z,4.23
2017-04-26T07:52:52.184Z,4.58
2017-04-26T07:53:50.527Z,4.98
2017-04-26T07:54:49.291Z,4.05
2017-04-26T07:55:47.945Z,4.32
2017-04-26T07:56:46.337Z,4.27
2017-04-26T07:57:44.727Z,5.55
2017-04-26T07:58:43.114Z,4.15
2017-04-26T07:59:41.477Z,3.53
2017-04-26T08:00:39.823Z,4.10
2017-04-26T08:01:38.224Z,4.20
2017-04-26T08:02:37.002Z,3.62
2017-04-26T08:03:35.399Z,3.80
2017-04-26T08:04:33.815Z,3.63
2017-04-26T08:05:32.173Z,3.57
2017-04-26T08:06:30.821Z,4.02
2017-04-26T08:07:29.196Z,3.12
2017-04-26T08:08:27.623Z,3.45
2017-04-26T08:09:26.396Z,3.73
2017-04-26T08:10:24.782Z,3.45
2017-04-26T08:11:23.141Z,4.00
2017-04-26T08:12:21.525Z,3.45
2017-04-26T08:13:20.305Z,3.93
2017-04-26T08:14:18.655Z,3.98
2017-04-26T08:15:17.348Z,3.45
2017-04-26T08:16:15.749Z,3.28
2017-04-26T08:17:14.392Z,2.75
2017-04-26T08:18:12.763Z,3.25
2017-04-26T08:19:11.185Z,3.47
2017-04-26T08:20:09.560Z,3.50
2017-04-26T08:21:07.937Z,4.18
2017-04-26T08:22:06.708Z,3.95
2017-04-26T08:23:05.324Z,3.40
2017-04-26T08:24:03.655Z,3.65
2017-04-26T08:25:01.999Z,2.92
2017-04-26T08:26:00.349Z,2.92
2017-04-26T08:26:59.107Z,3.35
2017-04-26T08:27:57.471Z,3.18
2017-04-26T08:28:56.079Z,3.28
2017-04-26T08:29:54.814Z,3.63
2017-04-26T08:30:53.231Z,3.03
2017-04-26T08:31:51.983Z,3.40
2017-04-26T08:32:50.339Z,3.30
2017-04-26T08:33:48.708Z,3.50
2017-04-26T08:34:47.057Z,3.27
2017-04-26T08:35:46.941Z,3.03
2017-04-26T08:36:45.417Z,2.63
2017-04-26T08:37:44.160Z,2.90
2017-04-26T08:38:42.528Z,2.68
2017-04-26T08:39:40.947Z,3.75
2017-04-26T08:40:39.706Z,3.05
2017-04-26T08:41:38.048Z,3.75
2017-04-26T08:42:36.411Z,2.85
2017-04-26T08:43:34.765Z,2.82
2017-04-26T08:44:33.815Z,3.00
2017-04-26T08:45:32.206Z,3.38
2017-04-26T08:46:30.568Z,3.52
2017-04-26T08:47:28.930Z,3.03
2017-04-26T08:48:27.313Z,3.63
2017-04-26T08:49:25.688Z,3.05
2017-04-26T08:50:24.363Z,2.77
2017-04-26T08:51:22.735Z,3.02
2017-04-26T08:52:21.365Z,3.65
2017-04-26T08:53:19.722Z,3.25
2017-04-26T08:54:18.080Z,3.63
2017-04-26T08:55:16.431Z,3.77
2017-04-26T08:56:15.459Z,3.35
2017-04-26T08:57:14.239Z,3.75
2017-04-26T08:58:12.572Z,3.63
2017-04-26T08:59:10.899Z,3.55
2017-04-26T09:00:09.304Z,3.35
2017-04-26T09:01:07.669Z,3.77
2017-04-26T09:02:06.326Z,3.58
2017-04-26T09:03:04.739Z,3.75
2017-04-26T09:04:03.116Z,3.92
2017-04-26T09:05:01.476Z,4.00
2017-04-26T09:05:59.845Z,3.68
2017-04-26T09:06:58.237Z,2.90
2017-04-26T09:07:56.703Z,3.07
2017-04-26T09:08:55.091Z,3.63
2017-04-26T09:09:53.435Z,3.45
2017-04-26T09:10:51.786Z,3.75
2017-04-26T09:11:50.156Z,3.90
2017-04-26T09:12:48.705Z,3.78
2017-04-26T09:13:47.433Z,3.72
2017-04-26T09:14:45.831Z,3.40
2017-04-26T09:15:44.197Z,4.27
2017-04-26T09:16:42.552Z,3.40
2017-04-26T09:17:40.972Z,4.27
2017-04-26T09:18:39.399Z,4.25
2017-04-26T09:19:38.048Z,3.72
2017-04-26T09:20:36.455Z,4.43
2017-04-26T09:21:34.796Z,3.65
2017-04-26T09:22:33.603Z,4.13
2017-04-26T09:23:31.975Z,4.13
2017-04-26T09:24:30.365Z,4.17
2017-04-26T09:25:29.031Z,4.35
2017-04-26T09:26:27.398Z,3.95
2017-04-26T09:27:25.744Z,4.15
2017-04-26T09:28:24.122Z,3.93
2017-04-26T09:29:22.803Z,5.33
2017-04-26T09:30:21.197Z,3.97
2017-04-26T09:31:19.878Z,4.68
2017-04-26T09:32:18.651Z,4.23
2017-04-26T09:33:17.031Z,4.65
2017-04-26T09:34:15.383Z,4.52
2017-04-26T09:35:13.763Z,4.25
2017-04-26T09:36:12.169Z,4.12
2017-04-26T09:37:10.755Z,4.47
2017-04-26T09:38:09.144Z,4.90
2017-04-26T09:39:07.925Z,4.40
2017-04-26T09:40:06.279Z,3.62
2017-04-26T09:41:04.691Z,4.35
2017-04-26T09:42:03.087Z,3.88
2017-04-26T09:43:01.768Z,4.10
2017-04-26T09:44:00.199Z,3.58
2017-04-26T09:44:58.996Z,3.92
2017-04-26T09:45:57.792Z,3.95
2017-04-26T09:46:56.201Z,4.20
2017-04-26T09:47:54.627Z,3.88
2017-04-26T09:48:53.269Z,3.90
2017-04-26T09:49:51.675Z,4.05
2017-04-26T09:50:50.065Z,3.07
2017-04-26T09:51:48.423Z,4.12
2017-04-26T09:52:46.809Z,3.82
2017-04-26T09:53:45.189Z,4.30
2017-04-26T09:54:44.235Z,4.37
2017-04-26T09:55:43.287Z,4.08
2017-04-26T09:56:42.087Z,4.25
2017-04-26T09:57:40.485Z,3.98
2017-04-26T09:58:38.884Z,4.18
2017-04-26T09:59:37.251Z,3.55
2017-04-26T10:00:36.016Z,4.42
2017-04-26T10:01:34.407Z,3.85
2017-04-26T10:02:32.743Z,3.30
2017-04-26T10:03:31.142Z,4.20
2017-04-26T10:04:29.539Z,4.30
2017-04-26T10:05:27.912Z,4.87
2017-04-26T10:06:26.382Z,4.37
2017-04-26T10:07:24.805Z,3.38
2017-04-26T10:08:23.152Z,3.85
2017-04-26T10:09:21.605Z,3.95
2017-04-26T10:10:19.996Z,3.55
2017-04-26T10:11:18.403Z,3.22
2017-04-26T10:12:17.072Z,4.80
2017-04-26T10:13:15.467Z,4.00
2017-04-26T10:14:13.859Z,4.65
2017-04-26T10:15:12.206Z,4.13
2017-04-26T10:16:10.782Z,3.97
2017-04-26T10:17:09.151Z,4.78
2017-04-26T10:18:07.777Z,4.37
2017-04-26T10:19:06.171Z,4.25
2017-04-26T10:20:04.898Z,4.80
2017-04-26T10:21:03.705Z,3.85
2017-04-26T10:22:02.098Z,5.17
2017-04-26T10:23:00.851Z,4.17
2017-04-26T10:23:59.531Z,4.42
2017-04-26T10:24:58.316Z,4.33
2017-04-26T10:25:56.687Z,4.10
2017-04-26T10:26:55.017Z,4.35
2017-04-26T10:28:03.089Z,4.40
2017-04-26T10:28:51.827Z,4.47
2017-04-26T10:29:50.504Z,4.50
2017-04-26T10:30:48.998Z,4.62
2017-04-26T10:31:47.356Z,3.98
2017-04-26T10:32:45.746Z,3.88
2017-04-26T10:33:44.504Z,4.02
2017-04-26T10:34:43.588Z,3.67
2017-04-26T10:35:41.883Z,5.35
2017-04-26T10:36:40.248Z,6.48
2017-04-26T10:37:38.585Z,4.70
2017-04-26T10:38:36.930Z,4.22
2017-04-26T10:39:35.707Z,4.02
2017-04-26T10:40:34.081Z,4.27
2017-04-26T10:41:32.724Z,3.62
2017-04-26T10:42:33.567Z,4.08
2017-04-26T10:43:29.512Z,4.77
2017-04-26T10:44:27.869Z,4.00
2017-04-26T10:45:26.629Z,4.18
2017-04-26T10:46:24.984Z,4.13
2017-04-26T10:47:23.670Z,4.02
2017-04-26T10:48:22.075Z,3.47
2017-04-26T10:49:20.440Z,3.55
2017-04-26T10:50:19.205Z,3.97
2017-04-26T10:51:17.591Z,4.60
2017-04-26T10:52:16.442Z,4.53
2017-04-26T10:53:15.114Z,3.55
2017-04-26T10:54:13.996Z,3.77
2017-04-26T10:55:12.380Z,3.73
2017-04-26T10:56:11.120Z,3.72
2017-04-26T10:57:09.508Z,4.63
2017-04-26T10:58:07.998Z,3.97
2017-04-26T10:59:06.769Z,4.03
2017-04-26T11:00:05.191Z,3.52
2017-04-26T11:01:03.983Z,3.97
2017-04-26T11:02:02.314Z,4.88
2017-04-26T11:03:00.712Z,3.67
2017-04-26T11:03:59.095Z,4.03
2017-04-26T11:04:58.151Z,3.98
2017-04-26T11:05:56.543Z,3.50
2017-04-26T11:06:54.905Z,3.77
2017-04-26T11:07:53.295Z,3.52
2017-04-26T11:08:51.687Z,4.05
2017-04-26T11:09:50.094Z,4.67
2017-04-26T11:10:49.176Z,3.53
2017-04-26T11:11:47.563Z,4.15
2017-04-26T11:12:45.929Z,3.93
2017-04-26T11:13:44.299Z,3.92
2017-04-26T11:14:42.682Z,3.80
2017-04-26T11:15:41.479Z,3.93
2017-04-26T11:16:40.168Z,3.77
2017-04-26T11:17:38.552Z,4.28
2017-04-26T11:18:36.936Z,3.80
2017-04-26T11:19:35.312Z,3.37
2017-04-26T11:20:33.725Z,3.57
2017-04-26T11:21:32.177Z,3.67
2017-04-26T11:22:30.871Z,3.03
2017-04-26T11:23:29.285Z,3.37
2017-04-26T11:24:27.653Z,3.70
2017-04-26T11:25:26.045Z,4.00
2017-04-26T11:26:24.460Z,3.50
2017-04-26T11:27:22.885Z,3.68
2017-04-26T11:28:21.424Z,3.08
2017-04-26T11:29:19.813Z,3.50
2017-04-26T11:30:18.236Z,4.08
2017-04-26T11:31:16.653Z,2.92
2017-04-26T11:32:15.054Z,4.12
2017-04-26T11:33:13.856Z,3.37
2017-04-26T11:34:12.481Z,2.98
2017-04-26T11:35:10.941Z,3.32
2017-04-26T11:36:09.745Z,3.20
2017-04-26T11:37:08.533Z,3.22
2017-04-26T11:38:06.966Z,3.83
2017-04-26T11:39:05.707Z,3.38
2017-04-26T11:40:04.359Z,3.57
2017-04-26T11:41:02.822Z,3.33
2017-04-26T11:42:01.264Z,3.32
2017-04-26T11:42:59.652Z,3.15
2017-04-26T11:43:58.498Z,2.87
2017-04-26T11:44:56.925Z,3.70
2017-04-26T11:45:55.640Z,3.48
2017-04-26T11:46:54.470Z,3.52
2017-04-26T11:47:52.864Z,3.97
2017-04-26T11:48:51.241Z,3.68
2017-04-26T11:49:49.627Z,4.10
2017-04-26T11:50:48.009Z,3.65
2017-04-26T11:51:46.690Z,3.58
2017-04-26T11:52:45.077Z,3.85
2017-04-26T11:53:43.458Z,3.22
2017-04-26T11:54:41.827Z,3.70
2017-04-26T11:55:40.234Z,3.47
2017-04-26T11:56:39.026Z,3.63
2017-04-26T11:57:37.717Z,3.30
2017-04-26T11:58:36.103Z,4.03
2017-04-26T11:59:34.488Z,4.08
2017-04-26T12:00:32.878Z,3.48
2017-04-26T12:01:31.333Z,3.92
2017-04-26T12:02:30.132Z,4.25
2017-04-26T12:03:29.201Z,3.55
2017-04-26T12:04:27.611Z,3.63
2017-04-26T12:05:25.992Z,3.42
2017-04-26T12:06:24.370Z,3.25
2017-04-26T12:07:22.748Z,3.57
2017-04-26T12:08:21.141Z,3.57
2017-04-26T12:09:20.196Z,3.73
2017-04-26T12:10:18.966Z,3.40
2017-04-26T12:11:17.389Z,3.17
2017-04-26T12:12:15.751Z,3.48
2017-04-26T12:13:14.167Z,2.60
2017-04-26T12:14:12.625Z,3.45
2017-04-26T12:15:11.300Z,3.68
2017-04-26T12:16:10.083Z,2.72
2017-04-26T12:17:08.439Z,2.62
2017-04-26T12:18:06.802Z,3.12
2017-04-26T12:19:05.197Z,2.83
2017-04-26T12:20:04.006Z,3.37
2017-04-26T12:21:02.648Z,2.65
2017-04-26T12:22:01.412Z,3.12
2017-04-26T12:23:00.124Z,3.22
2017-04-26T12:23:58.468Z,3.00
2017-04-26T12:24:56.880Z,2.78
2017-04-26T12:25:55.253Z,3.17
2017-04-26T12:26:54.107Z,3.38
2017-04-26T12:27:52.468Z,2.87
2017-04-26T12:28:50.801Z,3.18
2017-04-26T12:29:49.139Z,4.10
2017-04-26T12:30:47.526Z,3.00
2017-04-26T12:31:45.884Z,3.50
2017-04-26T12:32:44.943Z,3.20
2017-04-26T12:33:43.351Z,3.00
2017-04-26T12:34:41.754Z,2.73
2017-04-26T12:35:40.137Z,3.30
2017-04-26T12:36:38.550Z,3.10
2017-04-26T12:37:36.953Z,3.20
2017-04-26T12:38:35.647Z,2.82
2017-04-26T12:39:34.079Z,2.87
2017-04-26T12:40:32.868Z,3.47
2017-04-26T12:41:31.240Z,3.33
2017-04-26T12:42:29.672Z,3.35
2017-04-26T12:43:28.155Z,2.77
2017-04-26T12:44:26.866Z,3.00
2017-04-26T12:45:25.678Z,2.98
2017-04-26T12:46:24.072Z,3.35
2017-04-26T12:47:22.457Z,3.45
2017-04-26T12:48:20.855Z,2.93
2017-04-26T12:49:19.246Z,3.05
2017-04-26T12:50:17.939Z,2.95
2017-04-26T12:51:16.365Z,3.15
2017-04-26T12:52:14.760Z,3.38
2017-04-26T12:53:13.095Z,3.03
2017-04-26T12:54:11.480Z,2.63
2017-04-26T12:55:09.867Z,2.47
2017-04-26T12:56:08.519Z,2.63
2017-04-26T12:57:06.910Z,3.02
2017-04-26T12:58:05.273Z,2.82
2017-04-26T12:59:03.639Z,2.87
2017-04-26T13:00:02.007Z,2.78
2017-04-26T13:01:00.352Z,2.60
2017-04-26T13:01:58.890Z,3.00
2017-04-26T13:02:57.267Z,2.80
2017-04-26T13:03:55.631Z,2.70
2017-04-26T13:04:53.954Z,2.83
2017-04-26T13:05:52.334Z,2.53
2017-04-26T13:06:50.714Z,2.13
2017-04-26T13:07:49.410Z,2.83
2017-04-26T13:08:47.779Z,2.98
2017-04-26T13:09:46.124Z,2.62
2017-04-26T13:10:44.511Z,2.37
2017-04-26T13:11:42.982Z,2.45
2017-04-26T13:12:41.356Z,2.13
2017-04-26T13:13:39.985Z,2.42
2017-04-26T13:14:38.355Z,2.42
2017-04-26T13:15:36.700Z,2.50
2017-04-26T13:16:35.056Z,2.75
2017-04-26T13:17:33.477Z,2.58
2017-04-26T13:18:31.915Z,2.25
2017-04-26T13:19:30.563Z,2.48
2017-04-26T13:20:28.933Z,3.00
2017-04-26T13:21:27.281Z,2.85
2017-04-26T13:22:25.625Z,2.77
2017-04-26T13:23:23.988Z,2.50
2017-04-26T13:24:22.376Z,2.27
2017-04-26T13:25:21.019Z,2.10
2017-04-26T13:26:19.407Z,1.98
2017-04-26T13:27:17.751Z,1.88
2017-04-26T13:28:16.188Z,1.85
2017-04-26T13:29:14.578Z,2.55
2017-04-26T13:30:12.973Z,1.80
2017-04-26T13:31:11.664Z,1.63
2017-04-26T13:32:10.027Z,2.00
2017-04-26T13:33:08.357Z,1.43
2017-04-26T13:34:06.751Z,1.63
2017-04-26T13:35:05.540Z,2.15
2017-04-26T13:36:03.980Z,2.10
2017-04-26T13:37:02.662Z,1.83
2017-04-26T13:38:01.044Z,1.47
2017-04-26T13:38:59.410Z,1.68
2017-04-26T13:39:57.784Z,1.45
2017-04-26T13:40:56.181Z,2.30
2017-04-26T13:41:54.585Z,1.87
2017-04-26T13:42:53.265Z,2.23
2017-04-26T13:43:51.687Z,1.80
2017-04-26T13:44:50.025Z,1.97
2017-04-26T13:45:48.383Z,2.07
2017-04-26T13:46:47.179Z,2.03
2017-04-26T13:47:45.574Z,1.75
2017-04-26T13:48:44.260Z,1.87
2017-04-26T13:49:42.646Z,1.73
2017-04-26T13:50:41.049Z,1.13
2017-04-26T13:51:39.428Z,1.68
2017-04-26T13:52:37.804Z,1.75
2017-04-26T13:53:36.222Z,2.12
2017-04-26T13:54:34.832Z,2.02
2017-04-26T13:55:33.262Z,2.12
2017-04-26T13:56:31.646Z,1.98
2017-04-26T13:57:30.033Z,1.82
2017-04-26T13:58:28.522Z,1.58
2017-04-26T13:59:26.921Z,1.32
2017-04-26T14:00:26.005Z,1.75
2017-04-26T14:01:24.471Z,1.93
2017-04-26T14:02:23.278Z,1.85
2017-04-26T14:03:21.649Z,1.58
2017-04-26T14:04:20.052Z,1.28
2017-04-26T14:05:18.862Z,1.75
2017-04-26T14:06:18.772Z,1.37
2017-04-26T14:07:17.306Z,1.40
2017-04-26T14:08:15.709Z,1.40
2017-04-26T14:09:14.085Z,1.45
2017-04-26T14:10:12.533Z,2.13
2017-04-26T14:11:10.933Z,2.17
2017-04-26T14:12:09.650Z,1.83
2017-04-26T14:13:08.059Z,2.53
2017-04-26T14:14:06.420Z,3.00
2017-04-26T14:15:04.848Z,1.93
2017-04-26T14:16:03.235Z,2.38
2017-04-26T14:17:01.672Z,1.97
2017-04-26T14:18:00.365Z,2.07
2017-04-26T14:18:58.812Z,1.83
2017-04-26T14:19:57.208Z,2.42
2017-04-26T14:20:55.619Z,2.12
2017-04-26T14:21:54.028Z,2.32
2017-04-26T14:22:52.926Z,2.57
2017-04-26T14:23:51.665Z,2.55
2017-04-26T14:24:50.495Z,2.68
2017-04-26T14:25:48.905Z,2.53
2017-04-26T14:26:47.308Z,2.98
2017-04-26T14:27:46.104Z,3.22
2017-04-26T14:28:44.509Z,3.25
2017-04-26T14:29:43.242Z,2.87
2017-04-26T14:30:42.052Z,2.63
2017-04-26T14:31:40.878Z,2.37
2017-04-26T14:32:39.248Z,2.13
2017-04-26T14:33:37.657Z,2.65
2017-04-26T14:34:36.060Z,3.50
2017-04-26T14:35:34.778Z,2.23
2017-04-26T14:36:35.597Z,2.33
2017-04-26T14:37:34.124Z,2.27
2017-04-26T14:38:32.489Z,2.23
2017-04-26T14:39:31.318Z,1.88
2017-04-26T14:40:29.700Z,2.00
2017-04-26T14:41:28.784Z,1.83
2017-04-26T14:42:27.156Z,1.62
2017-04-26T14:43:25.901Z,2.30
2017-04-26T14:44:24.253Z,2.50
2017-04-26T14:45:23.061Z,2.63
2017-04-26T14:46:21.862Z,2.65
2017-04-26T14:47:20.565Z,1.95
2017-04-26T14:48:18.960Z,1.63
2017-04-26T14:49:17.503Z,2.35
2017-04-26T14:50:15.898Z,2.08
2017-04-26T14:51:14.304Z,2.13
2017-04-26T14:52:12.704Z,2.75
2017-04-26T14:53:11.367Z,1.93
2017-04-26T14:54:09.769Z,2.30
2017-04-26T14:55:08.179Z,1.98
2017-04-26T14:56:06.545Z,2.18
2017-04-26T14:57:04.953Z,2.65
2017-04-26T14:58:03.736Z,2.87
2017-04-26T14:59:02.420Z,2.05
2017-04-26T15:00:00.828Z,2.92
2017-04-26T15:00:59.266Z,2.20
2017-04-26T15:01:57.645Z,2.62
2017-04-26T15:02:56.036Z,3.10
2017-04-26T15:03:54.465Z,2.12
2017-04-26T15:04:53.131Z,2.37
2017-04-26T15:05:51.525Z,1.98
2017-04-26T15:06:49.918Z,2.97
2017-04-26T15:07:48.300Z,2.93
2017-04-26T15:08:47.168Z,2.37
2017-04-26T15:09:45.568Z,2.27
2017-04-26T15:10:44.240Z,2.13
2017-04-26T15:11:42.869Z,2.50
2017-04-26T15:12:41.254Z,1.80
2017-04-26T15:13:39.620Z,2.38
2017-04-26T15:14:38.028Z,2.25
2017-04-26T15:15:36.454Z,1.98
2017-04-26T15:16:35.146Z,2.47
2017-04-26T15:17:33.566Z,3.08
2017-04-26T15:18:32.361Z,1.77
2017-04-26T15:19:30.739Z,1.50
2017-04-26T15:20:29.120Z,2.23
2017-04-26T15:21:28.277Z,2.42
2017-04-26T15:22:26.792Z,1.48
2017-04-26T15:23:25.217Z,1.82
2017-04-26T15:24:23.609Z,1.95
2017-04-26T15:25:22.013Z,1.57
2017-04-26T15:26:20.411Z,1.42
2017-04-26T15:27:18.816Z,1.67
2017-04-26T15:28:17.491Z,1.87
2017-04-26T15:29:15.921Z,2.10
2017-04-26T15:30:14.296Z,2.03
2017-04-26T15:31:12.697Z,1.93
2017-04-26T15:32:11.493Z,1.90
2017-04-26T15:33:09.996Z,2.07
2017-04-26T15:34:08.698Z,2.30
2017-04-26T15:35:07.089Z,2.05
2017-04-26T15:36:05.624Z,1.90
2017-04-26T15:37:04.442Z,1.73
2017-04-26T15:38:03.068Z,2.07
2017-04-26T15:39:01.463Z,1.90
2017-04-26T15:40:00.129Z,1.78
2017-04-26T15:40:58.524Z,1.80
2017-04-26T15:41:57.305Z,1.95
2017-04-26T15:42:56.073Z,1.80
2017-04-26T15:43:54.443Z,2.02
2017-04-26T15:44:52.812Z,2.23
2017-04-26T15:45:51.486Z,2.00
2017-04-26T15:46:49.896Z,1.62
2017-04-26T15:47:48.494Z,1.95
2017-04-26T15:48:46.887Z,1.43
2017-04-26T15:49:45.261Z,1.68
2017-04-26T15:50:43.711Z,1.45
2017-04-26T15:51:42.989Z,1.63
2017-04-26T15:52:41.353Z,1.82
2017-04-26T15:53:39.688Z,1.72
2017-04-26T15:54:38.044Z,1.65
2017-04-26T15:55:36.423Z,1.80
2017-04-26T15:56:34.785Z,2.02
2017-04-26T15:57:34.063Z,1.40
2017-04-26T15:58:32.812Z,2.02
2017-04-26T15:59:31.152Z,1.78
2017-04-26T16:00:29.476Z,1.85
2017-04-26T16:01:27.815Z,1.33
2017-04-26T16:02:26.155Z,1.52
2017-04-26T16:03:24.750Z,1.57
2017-04-26T16:04:23.083Z,1.53
2017-04-26T16:05:21.451Z,1.32
2017-04-26T16:06:19.782Z,1.30
2017-04-26T16:07:18.540Z,1.38
2017-04-26T16:08:16.902Z,1.50
2017-04-26T16:09:15.548Z,1.33
2017-04-26T16:10:13.907Z,1.42
2017-04-26T16:11:12.256Z,1.73
2017-04-26T16:12:10.601Z,1.60
2017-04-26T16:13:09.330Z,1.97
2017-04-26T16:14:07.659Z,1.73
2017-04-26T16:15:06.227Z,1.42
2017-04-26T16:16:04.568Z,1.80
2017-04-26T16:17:03.311Z,1.87
2017-04-26T16:18:01.663Z,2.12
2017-04-26T16:19:00.400Z,2.18
2017-04-26T16:19:58.763Z,1.87
2017-04-26T16:20:57.545Z,1.93
2017-04-26T16:21:56.284Z,1.82
2017-04-26T16:22:54.645Z,1.38
2017-04-26T16:23:52.984Z,2.08
2017-04-26T16:24:51.312Z,1.62
2017-04-26T16:25:49.680Z,1.53
2017-04-26T16:26:48.293Z,2.25
2017-04-26T16:27:46.630Z,1.82
2017-04-26T16:28:44.951Z,2.33
2017-04-26T16:29:43.297Z,1.68
2017-04-26T16:30:41.678Z,1.82
2017-04-26T16:31:40.038Z,2.17
2017-04-26T16:32:38.683Z,2.30
2017-04-26T16:33:36.998Z,2.13
2017-04-26T16:34:35.343Z,2.12
2017-04-26T16:35:34.075Z,1.97
2017-04-26T16:36:32.438Z,1.88
2017-04-26T16:37:30.756Z,1.95
2017-04-26T16:38:29.230Z,2.60
2017-04-26T16:39:27.587Z,1.90
2017-04-26T16:40:25.939Z,2.22
2017-04-26T16:41:24.642Z,1.92
2017-04-26T16:42:22.962Z,2.13
2017-04-26T16:43:21.306Z,2.43
2017-04-26T16:44:19.916Z,2.05
2017-04-26T16:45:18.283Z,2.12
2017-04-26T16:46:16.618Z,2.38
2017-04-26T16:47:14.975Z,2.55
2017-04-26T16:48:13.715Z,2.35
2017-04-26T16:49:12.058Z,2.43
2017-04-26T16:50:10.658Z,2.35
2017-04-26T16:51:09.028Z,2.13
2017-04-26T16:52:07.360Z,2.60
2017-04-26T16:53:05.683Z,2.28
2017-04-26T16:54:04.041Z,2.17
2017-04-26T16:55:02.385Z,2.03
2017-04-26T16:56:01.026Z,2.47
2017-04-26T16:56:59.367Z,2.82
2017-04-26T16:57:57.700Z,2.60
2017-04-26T16:58:56.442Z,2.68
2017-04-26T16:59:54.795Z,3.03
2017-04-26T17:00:53.172Z,3.63
2017-04-26T17:01:51.723Z,2.45
2017-04-26T17:02:50.077Z,4.43
2017-04-26T17:03:48.416Z,4.65
2017-04-26T17:04:46.756Z,2.42
2017-04-26T17:05:45.116Z,2.65
2017-04-26T17:06:43.482Z,2.53
2017-04-26T17:07:41.983Z,3.03
2017-04-26T17:08:40.359Z,2.20
2017-04-26T17:09:38.712Z,2.40
2017-04-26T17:10:37.084Z,2.25
2017-04-26T17:11:35.441Z,2.85
2017-04-26T17:12:33.787Z,2.43
2017-04-26T17:13:32.311Z,2.03
2017-04-26T17:14:30.814Z,1.97
2017-04-26T17:15:29.759Z,2.67
2017-04-26T17:16:28.096Z,2.35
2017-04-26T17:17:26.447Z,2.12
2017-04-26T17:18:24.816Z,2.78
2017-04-26T17:19:24.259Z,1.82
2017-04-26T17:20:24.195Z,2.68
2017-04-26T17:21:23.967Z,2.63
2017-04-26T17:22:22.371Z,2.97
2017-04-26T17:23:23.754Z,1.60
2017-04-26T17:24:22.518Z,1.80
2017-04-26T17:25:21.126Z,1.43
2017-04-26T17:26:19.486Z,1.87
2017-04-26T17:27:19.074Z,2.32
2017-04-26T17:28:17.420Z,1.58
2017-04-26T17:29:16.533Z,1.68
2017-04-26T17:30:15.300Z,1.83
2017-04-26T17:31:13.938Z,1.92
2017-04-26T17:32:12.658Z,1.72
2017-04-26T17:33:11.024Z,1.88
2017-04-26T17:34:09.376Z,1.57
2017-04-26T17:35:07.750Z,1.55
2017-04-26T17:36:06.076Z,2.00
2017-04-26T17:37:05.213Z,1.47
2017-04-26T17:38:03.612Z,1.73
2017-04-26T17:39:02.036Z,1.63
2017-04-26T17:40:00.412Z,1.55
2017-04-26T17:40:59.143Z,1.70
2017-04-26T17:41:57.503Z,2.10
2017-04-26T17:42:56.150Z,1.87
2017-04-26T17:43:54.480Z,1.72
2017-04-26T17:44:52.812Z,1.62
2017-04-26T17:45:51.186Z,1.65
2017-04-26T17:46:49.515Z,1.67
2017-04-26T17:47:48.250Z,1.70
2017-04-26T17:48:48.981Z,1.97
2017-04-26T17:49:48.554Z,2.15
2017-04-26T17:50:47.920Z,2.73
2017-04-26T17:51:47.133Z,2.37
2017-04-26T17:52:45.777Z,2.22
2017-04-26T17:53:44.596Z,1.70
2017-04-26T17:54:44.047Z,1.70
2017-04-26T17:55:42.761Z,1.98
2017-04-26T17:56:41.563Z,1.55
2017-04-26T17:57:40.648Z,1.52
2017-04-26T17:58:39.484Z,1.47
2017-04-26T17:59:38.247Z,1.93
2017-04-26T18:00:37.066Z,1.82
2017-04-26T18:01:36.669Z,1.53
2017-04-26T18:02:36.206Z,1.32
2017-04-26T18:03:35.220Z,1.47
2017-04-26T18:04:34.048Z,1.10
2017-04-26T18:05:33.026Z,1.52
2017-04-26T18:06:31.861Z,1.55
2017-04-26T18:07:31.369Z,1.62
2017-04-26T18:08:30.379Z,1.72
2017-04-26T18:09:28.884Z,1.52
2017-04-26T18:10:28.322Z,1.35
2017-04-26T18:11:27.574Z,1.83
2017-04-26T18:12:26.629Z,1.45
2017-04-26T18:13:25.500Z,1.35
2017-04-26T18:14:24.823Z,1.90
2017-04-26T18:15:24.738Z,2.15
2017-04-26T18:16:23.663Z,1.85
2017-04-26T18:17:23.055Z,2.27
2017-04-26T18:18:22.372Z,1.77
2017-04-26T18:19:21.812Z,1.85
2017-04-26T18:20:20.756Z,2.13
2017-04-26T18:21:19.516Z,1.62
2017-04-26T18:22:18.407Z,1.62
2017-04-26T18:23:17.645Z,1.58
2017-04-26T18:24:16.427Z,1.13
2017-04-26T18:25:16.255Z,1.17
2017-04-26T18:26:15.170Z,2.15
2017-04-26T18:27:14.053Z,1.57
2017-04-26T18:28:13.032Z,1.70
2017-04-26T18:29:12.999Z,1.72
2017-04-26T18:30:11.566Z,1.38
2017-04-26T18:31:10.510Z,1.88
2017-04-26T18:32:09.932Z,1.78
2017-04-26T18:33:09.180Z,2.17
2017-04-26T18:34:07.827Z,2.23
2017-04-26T18:35:08.223Z,2.68
2017-04-26T18:36:07.571Z,2.08
2017-04-26T18:37:07.015Z,2.03
2017-04-26T18:38:05.384Z,2.17
2017-04-26T18:39:04.383Z,2.08
2017-04-26T18:40:04.034Z,1.50
2017-04-26T18:41:03.625Z,1.77
2017-04-26T18:42:02.718Z,1.63
2017-04-26T18:43:02.604Z,1.72
2017-04-26T18:44:01.429Z,1.58
2017-04-26T18:45:00.612Z,1.62
2017-04-26T18:45:59.352Z,1.80
2017-04-26T18:46:58.613Z,1.58
2017-04-26T18:47:57.458Z,1.70
2017-04-26T18:48:56.646Z,1.48
2017-04-26T18:49:55.437Z,1.70
2017-04-26T18:50:55.184Z,2.05
2017-04-26T18:51:54.898Z,2.27
2017-04-26T18:52:53.832Z,1.65
2017-04-26T18:53:52.576Z,2.13
2017-04-26T18:54:51.557Z,2.13
2017-04-26T18:55:51.071Z,1.85
2017-04-26T18:56:49.919Z,1.97
2017-04-26T18:57:48.906Z,1.65
2017-04-26T18:58:47.839Z,1.77
2017-04-26T18:59:46.961Z,1.83
2017-04-26T19:00:46.005Z,1.57
2017-04-26T19:01:46.003Z,1.57
2017-04-26T19:02:46.055Z,1.82
2017-04-26T19:03:44.696Z,1.60
2017-04-26T19:04:43.490Z,1.92
2017-04-26T19:05:42.391Z,1.78
2017-04-26T19:06:41.336Z,1.57
2017-04-26T19:07:40.383Z,1.87
2017-04-26T19:08:39.075Z,1.72
2017-04-26T19:09:37.868Z,1.60
2017-04-26T19:10:36.828Z,1.63
2017-04-26T19:11:35.793Z,1.63
2017-04-26T19:12:35.718Z,2.13
2017-04-26T19:13:35.382Z,1.73
2017-04-26T19:14:34.629Z,1.65
2017-04-26T19:15:33.840Z,1.78
2017-04-26T19:16:33.735Z,1.80
2017-04-26T19:17:33.290Z,1.60
2017-04-26T19:18:32.304Z,2.00
2017-04-26T19:19:31.140Z,1.67
2017-04-26T19:20:30.384Z,1.92
2017-04-26T19:21:29.995Z,2.13
2017-04-26T19:22:29.455Z,1.67
2017-04-26T19:23:28.344Z,1.93
2017-04-26T19:24:28.151Z,2.25
2017-04-26T19:25:27.707Z,1.95
2017-04-26T19:26:26.367Z,2.12
2017-04-26T19:27:25.770Z,2.02
2017-04-26T19:28:24.924Z,2.15
2017-04-26T19:29:24.224Z,2.03
2017-04-26T19:30:23.461Z,1.68